sensor_id;sensor_type;location;lat;lon;timestamp;P1;durP1;ratioP1;P2;durP2;ratioP2
48534;SDS011;34323;52.022;5.686;2023-07-28T00:00:05;17.42;;;8.43;;
48534;SDS011;34323;52.022;5.686;2023-07-28T00:02:33;16.75;;;9.77;;
48534;SDS011;34323;52.022;5.686;2023-07-28T00:04:58;16.38;;;9.43;;
48534;SDS011;34323;52.022;5.686;2023-07-28T00:07:24;17.75;;;9.90;;
48534;SDS011;34323;52.022;5.686;2023-07-28T00:09:50;16.42;;;9.13;;
48534;SDS011;34323;52.022;5.686;2023-07-28T00:12:15;14.88;;;9.30;;
48534;SDS011;34323;52.022;5.686;2023-07-28T00:14:41;14.68;;;8.70;;
48534;SDS011;34323;52.022;5.686;2023-07-28T00:17:06;14.13;;;8.95;;
48534;SDS011;34323;52.022;5.686;2023-07-28T00:19:32;16.27;;;9.13;;
48534;SDS011;34323;52.022;5.686;2023-07-28T00:21:57;14.95;;;8.85;;
48534;SDS011;34323;52.022;5.686;2023-07-28T00:24:23;16.15;;;8.13;;
48534;SDS011;34323;52.022;5.686;2023-07-28T00:26:48;15.70;;;8.90;;
48534;SDS011;34323;52.022;5.686;2023-07-28T00:29:14;13.57;;;8.88;;
48534;SDS011;34323;52.022;5.686;2023-07-28T00:31:39;18.00;;;9.70;;
48534;SDS011;34323;52.022;5.686;2023-07-28T00:34:05;15.18;;;9.38;;
48534;SDS011;34323;52.022;5.686;2023-07-28T00:36:30;18.02;;;8.43;;
48534;SDS011;34323;52.022;5.686;2023-07-28T00:38:57;14.20;;;8.73;;
48534;SDS011;34323;52.022;5.686;2023-07-28T00:41:23;15.73;;;8.65;;
48534;SDS011;34323;52.022;5.686;2023-07-28T00:43:48;15.98;;;8.55;;
48534;SDS011;34323;52.022;5.686;2023-07-28T00:46:14;14.82;;;9.38;;
48534;SDS011;34323;52.022;5.686;2023-07-28T00:48:40;16.98;;;8.13;;
48534;SDS011;34323;52.022;5.686;2023-07-28T00:51:09;18.85;;;8.25;;
48534;SDS011;34323;52.022;5.686;2023-07-28T00:53:36;18.38;;;9.57;;
48534;SDS011;34323;52.022;5.686;2023-07-28T00:56:02;15.63;;;9.23;;
48534;SDS011;34323;52.022;5.686;2023-07-28T00:58:29;13.55;;;8.68;;
48534;SDS011;34323;52.022;5.686;2023-07-28T01:00:55;17.45;;;9.52;;
48534;SDS011;34323;52.022;5.686;2023-07-28T01:03:20;14.75;;;8.18;;
48534;SDS011;34323;52.022;5.686;2023-07-28T01:05:55;17.48;;;10.10;;
48534;SDS011;34323;52.022;5.686;2023-07-28T01:08:46;20.75;;;9.90;;
48534;SDS011;34323;52.022;5.686;2023-07-28T01:11:21;15.80;;;9.25;;
48534;SDS011;34323;52.022;5.686;2023-07-28T01:13:47;18.58;;;9.30;;
48534;SDS011;34323;52.022;5.686;2023-07-28T01:16:12;17.42;;;8.52;;
48534;SDS011;34323;52.022;5.686;2023-07-28T01:18:38;16.88;;;9.65;;
48534;SDS011;34323;52.022;5.686;2023-07-28T01:21:05;20.75;;;10.30;;
48534;SDS011;34323;52.022;5.686;2023-07-28T01:23:37;16.45;;;9.35;;
48534;SDS011;34323;52.022;5.686;2023-07-28T01:26:32;18.70;;;9.90;;
48534;SDS011;34323;52.022;5.686;2023-07-28T01:29:01;18.15;;;10.27;;
48534;SDS011;34323;52.022;5.686;2023-07-28T01:31:28;20.13;;;10.27;;
48534;SDS011;34323;52.022;5.686;2023-07-28T01:33:54;20.65;;;10.32;;
48534;SDS011;34323;52.022;5.686;2023-07-28T01:36:20;16.33;;;10.18;;
48534;SDS011;34323;52.022;5.686;2023-07-28T01:38:45;20.33;;;10.63;;
48534;SDS011;34323;52.022;5.686;2023-07-28T01:41:11;19.83;;;11.63;;
48534;SDS011;34323;52.022;5.686;2023-07-28T01:43:36;23.88;;;10.82;;
48534;SDS011;34323;52.022;5.686;2023-07-28T01:46:02;16.92;;;9.82;;
48534;SDS011;34323;52.022;5.686;2023-07-28T01:48:28;20.13;;;9.73;;
48534;SDS011;34323;52.022;5.686;2023-07-28T01:50:53;20.83;;;9.82;;
48534;SDS011;34323;52.022;5.686;2023-07-28T01:53:19;19.98;;;10.00;;
48534;SDS011;34323;52.022;5.686;2023-07-28T01:55:44;19.52;;;10.35;;
48534;SDS011;34323;52.022;5.686;2023-07-28T01:58:10;17.50;;;9.73;;
48534;SDS011;34323;52.022;5.686;2023-07-28T02:00:36;16.70;;;10.70;;
48534;SDS011;34323;52.022;5.686;2023-07-28T02:03:02;22.58;;;11.05;;
48534;SDS011;34323;52.022;5.686;2023-07-28T02:05:28;25.77;;;10.85;;
48534;SDS011;34323;52.022;5.686;2023-07-28T02:07:54;21.88;;;11.43;;
48534;SDS011;34323;52.022;5.686;2023-07-28T02:10:21;22.42;;;11.32;;
48534;SDS011;34323;52.022;5.686;2023-07-28T02:12:48;22.73;;;11.15;;
48534;SDS011;34323;52.022;5.686;2023-07-28T02:15:14;18.50;;;10.45;;
48534;SDS011;34323;52.022;5.686;2023-07-28T02:17:40;19.75;;;10.20;;
48534;SDS011;34323;52.022;5.686;2023-07-28T02:20:05;23.67;;;11.52;;
48534;SDS011;34323;52.022;5.686;2023-07-28T02:22:32;28.25;;;11.50;;
48534;SDS011;34323;52.022;5.686;2023-07-28T02:24:57;18.70;;;10.15;;
48534;SDS011;34323;52.022;5.686;2023-07-28T02:27:27;22.27;;;10.70;;
48534;SDS011;34323;52.022;5.686;2023-07-28T02:29:52;20.05;;;9.70;;
48534;SDS011;34323;52.022;5.686;2023-07-28T02:32:18;20.70;;;9.73;;
48534;SDS011;34323;52.022;5.686;2023-07-28T02:34:43;18.52;;;10.65;;
48534;SDS011;34323;52.022;5.686;2023-07-28T02:37:09;23.40;;;10.75;;
48534;SDS011;34323;52.022;5.686;2023-07-28T02:39:34;20.33;;;10.65;;
48534;SDS011;34323;52.022;5.686;2023-07-28T02:42:00;22.85;;;10.68;;
48534;SDS011;34323;52.022;5.686;2023-07-28T02:44:26;18.90;;;9.77;;
48534;SDS011;34323;52.022;5.686;2023-07-28T02:46:51;26.80;;;12.20;;
48534;SDS011;34323;52.022;5.686;2023-07-28T02:49:17;20.35;;;11.38;;
48534;SDS011;34323;52.022;5.686;2023-07-28T02:51:43;21.98;;;11.73;;
48534;SDS011;34323;52.022;5.686;2023-07-28T02:54:08;29.17;;;12.98;;
48534;SDS011;34323;52.022;5.686;2023-07-28T02:56:34;25.63;;;12.45;;
48534;SDS011;34323;52.022;5.686;2023-07-28T02:59:02;22.95;;;12.20;;
48534;SDS011;34323;52.022;5.686;2023-07-28T03:01:31;29.13;;;13.15;;
48534;SDS011;34323;52.022;5.686;2023-07-28T03:03:58;26.25;;;11.80;;
48534;SDS011;34323;52.022;5.686;2023-07-28T03:06:25;30.20;;;13.60;;
48534;SDS011;34323;52.022;5.686;2023-07-28T03:08:50;24.48;;;12.57;;
48534;SDS011;34323;52.022;5.686;2023-07-28T03:11:16;33.25;;;14.02;;
48534;SDS011;34323;52.022;5.686;2023-07-28T03:13:42;31.45;;;14.00;;
48534;SDS011;34323;52.022;5.686;2023-07-28T03:16:07;33.58;;;13.35;;
48534;SDS011;34323;52.022;5.686;2023-07-28T03:18:33;30.02;;;12.88;;
48534;SDS011;34323;52.022;5.686;2023-07-28T03:20:58;26.67;;;13.68;;
48534;SDS011;34323;52.022;5.686;2023-07-28T03:23:24;33.50;;;13.95;;
48534;SDS011;34323;52.022;5.686;2023-07-28T03:25:50;29.23;;;14.57;;
48534;SDS011;34323;52.022;5.686;2023-07-28T03:28:15;33.13;;;14.20;;
48534;SDS011;34323;52.022;5.686;2023-07-28T03:30:41;37.90;;;13.85;;
48534;SDS011;34323;52.022;5.686;2023-07-28T03:33:06;36.70;;;14.02;;
48534;SDS011;34323;52.022;5.686;2023-07-28T03:35:32;34.00;;;14.63;;
48534;SDS011;34323;52.022;5.686;2023-07-28T03:37:57;34.97;;;14.30;;
48534;SDS011;34323;52.022;5.686;2023-07-28T03:40:23;40.05;;;13.57;;
48534;SDS011;34323;52.022;5.686;2023-07-28T03:42:49;37.25;;;14.98;;
48534;SDS011;34323;52.022;5.686;2023-07-28T03:45:14;31.25;;;14.13;;
48534;SDS011;34323;52.022;5.686;2023-07-28T03:47:40;32.17;;;13.48;;
48534;SDS011;34323;52.022;5.686;2023-07-28T03:50:06;33.20;;;13.65;;
48534;SDS011;34323;52.022;5.686;2023-07-28T03:52:31;28.83;;;14.05;;
48534;SDS011;34323;52.022;5.686;2023-07-28T03:54:57;34.83;;;14.55;;
48534;SDS011;34323;52.022;5.686;2023-07-28T03:57:22;32.83;;;14.15;;
48534;SDS011;34323;52.022;5.686;2023-07-28T03:59:48;32.17;;;14.32;;
48534;SDS011;34323;52.022;5.686;2023-07-28T04:02:13;36.30;;;14.27;;
48534;SDS011;34323;52.022;5.686;2023-07-28T04:04:39;39.88;;;14.63;;
48534;SDS011;34323;52.022;5.686;2023-07-28T04:07:05;36.08;;;13.52;;
48534;SDS011;34323;52.022;5.686;2023-07-28T04:09:31;40.00;;;14.35;;
48534;SDS011;34323;52.022;5.686;2023-07-28T04:11:56;46.90;;;15.15;;
48534;SDS011;34323;52.022;5.686;2023-07-28T04:14:22;32.08;;;14.70;;
48534;SDS011;34323;52.022;5.686;2023-07-28T04:16:47;30.67;;;14.02;;
48534;SDS011;34323;52.022;5.686;2023-07-28T04:19:13;38.78;;;14.85;;
48534;SDS011;34323;52.022;5.686;2023-07-28T04:21:38;39.20;;;15.05;;
48534;SDS011;34323;52.022;5.686;2023-07-28T04:24:07;37.65;;;15.32;;
48534;SDS011;34323;52.022;5.686;2023-07-28T04:26:33;31.63;;;14.15;;
48534;SDS011;34323;52.022;5.686;2023-07-28T04:28:59;38.78;;;14.15;;
48534;SDS011;34323;52.022;5.686;2023-07-28T04:31:24;38.20;;;16.00;;
48534;SDS011;34323;52.022;5.686;2023-07-28T04:33:50;42.67;;;15.52;;
48534;SDS011;34323;52.022;5.686;2023-07-28T04:36:16;37.38;;;13.95;;
48534;SDS011;34323;52.022;5.686;2023-07-28T04:38:42;41.20;;;14.98;;
48534;SDS011;34323;52.022;5.686;2023-07-28T04:41:07;37.95;;;14.73;;
48534;SDS011;34323;52.022;5.686;2023-07-28T04:43:33;40.03;;;15.07;;
48534;SDS011;34323;52.022;5.686;2023-07-28T04:45:58;49.08;;;15.63;;
48534;SDS011;34323;52.022;5.686;2023-07-28T04:48:24;37.50;;;15.30;;
48534;SDS011;34323;52.022;5.686;2023-07-28T04:50:49;45.40;;;15.27;;
48534;SDS011;34323;52.022;5.686;2023-07-28T04:53:15;34.20;;;15.40;;
48534;SDS011;34323;52.022;5.686;2023-07-28T04:55:40;41.28;;;17.75;;
48534;SDS011;34323;52.022;5.686;2023-07-28T04:58:06;36.47;;;15.10;;
48534;SDS011;34323;52.022;5.686;2023-07-28T05:00:32;47.72;;;16.83;;
48534;SDS011;34323;52.022;5.686;2023-07-28T05:02:57;49.28;;;17.77;;
48534;SDS011;34323;52.022;5.686;2023-07-28T05:05:23;43.15;;;15.32;;
48534;SDS011;34323;52.022;5.686;2023-07-28T05:07:48;45.13;;;16.63;;
48534;SDS011;34323;52.022;5.686;2023-07-28T05:10:14;46.25;;;18.50;;
48534;SDS011;34323;52.022;5.686;2023-07-28T05:12:39;48.53;;;18.38;;
48534;SDS011;34323;52.022;5.686;2023-07-28T05:15:05;43.35;;;18.35;;
48534;SDS011;34323;52.022;5.686;2023-07-28T05:17:35;46.67;;;18.42;;
48534;SDS011;34323;52.022;5.686;2023-07-28T05:20:01;43.92;;;18.83;;
48534;SDS011;34323;52.022;5.686;2023-07-28T05:22:27;44.90;;;20.05;;
48534;SDS011;34323;52.022;5.686;2023-07-28T05:24:53;48.65;;;20.10;;
48534;SDS011;34323;52.022;5.686;2023-07-28T05:27:18;45.15;;;19.83;;
48534;SDS011;34323;52.022;5.686;2023-07-28T05:29:44;56.78;;;21.20;;
48534;SDS011;34323;52.022;5.686;2023-07-28T05:32:10;49.00;;;20.40;;
48534;SDS011;34323;52.022;5.686;2023-07-28T05:34:35;54.25;;;21.80;;
48534;SDS011;34323;52.022;5.686;2023-07-28T05:37:01;60.78;;;21.95;;
48534;SDS011;34323;52.022;5.686;2023-07-28T05:39:26;47.47;;;20.95;;
48534;SDS011;34323;52.022;5.686;2023-07-28T05:41:52;47.75;;;21.00;;
48534;SDS011;34323;52.022;5.686;2023-07-28T05:44:17;47.30;;;21.23;;
48534;SDS011;34323;52.022;5.686;2023-07-28T05:46:43;45.08;;;20.50;;
48534;SDS011;34323;52.022;5.686;2023-07-28T05:49:09;40.65;;;19.00;;
48534;SDS011;34323;52.022;5.686;2023-07-28T05:51:35;53.30;;;21.17;;
48534;SDS011;34323;52.022;5.686;2023-07-28T05:54:00;43.58;;;18.83;;
48534;SDS011;34323;52.022;5.686;2023-07-28T05:56:26;46.13;;;19.45;;
48534;SDS011;34323;52.022;5.686;2023-07-28T05:58:51;44.15;;;18.60;;
48534;SDS011;34323;52.022;5.686;2023-07-28T06:01:17;42.08;;;18.85;;
48534;SDS011;34323;52.022;5.686;2023-07-28T06:03:43;45.13;;;19.98;;
48534;SDS011;34323;52.022;5.686;2023-07-28T06:06:09;45.65;;;18.92;;
48534;SDS011;34323;52.022;5.686;2023-07-28T06:08:34;51.47;;;18.88;;
48534;SDS011;34323;52.022;5.686;2023-07-28T06:11:03;41.70;;;18.63;;
48534;SDS011;34323;52.022;5.686;2023-07-28T06:13:32;48.72;;;18.67;;
48534;SDS011;34323;52.022;5.686;2023-07-28T06:15:58;41.72;;;18.73;;
48534;SDS011;34323;52.022;5.686;2023-07-28T06:18:24;38.50;;;15.70;;
48534;SDS011;34323;52.022;5.686;2023-07-28T06:20:50;47.60;;;17.50;;
48534;SDS011;34323;52.022;5.686;2023-07-28T06:23:16;35.15;;;17.05;;
48534;SDS011;34323;52.022;5.686;2023-07-28T06:25:41;40.75;;;18.33;;
48534;SDS011;34323;52.022;5.686;2023-07-28T06:28:11;35.85;;;16.98;;
48534;SDS011;34323;52.022;5.686;2023-07-28T06:30:37;36.53;;;16.92;;
48534;SDS011;34323;52.022;5.686;2023-07-28T06:33:05;39.40;;;18.50;;
48534;SDS011;34323;52.022;5.686;2023-07-28T06:35:31;39.75;;;17.45;;
48534;SDS011;34323;52.022;5.686;2023-07-28T06:37:57;36.53;;;16.75;;
48534;SDS011;34323;52.022;5.686;2023-07-28T06:40:25;37.53;;;16.63;;
48534;SDS011;34323;52.022;5.686;2023-07-28T06:42:50;39.72;;;18.73;;
48534;SDS011;34323;52.022;5.686;2023-07-28T06:45:16;35.60;;;16.67;;
48534;SDS011;34323;52.022;5.686;2023-07-28T06:47:41;37.10;;;16.60;;
48534;SDS011;34323;52.022;5.686;2023-07-28T06:50:08;36.20;;;17.25;;
48534;SDS011;34323;52.022;5.686;2023-07-28T06:52:33;36.35;;;17.52;;
48534;SDS011;34323;52.022;5.686;2023-07-28T06:54:59;36.85;;;17.63;;
48534;SDS011;34323;52.022;5.686;2023-07-28T06:57:25;37.67;;;17.40;;
48534;SDS011;34323;52.022;5.686;2023-07-28T06:59:50;40.10;;;18.65;;
48534;SDS011;34323;52.022;5.686;2023-07-28T07:02:16;32.50;;;17.33;;
48534;SDS011;34323;52.022;5.686;2023-07-28T07:04:42;37.53;;;17.55;;
48534;SDS011;34323;52.022;5.686;2023-07-28T07:07:07;37.05;;;17.63;;
48534;SDS011;34323;52.022;5.686;2023-07-28T07:09:33;41.25;;;18.25;;
48534;SDS011;34323;52.022;5.686;2023-07-28T07:11:59;40.00;;;16.50;;
48534;SDS011;34323;52.022;5.686;2023-07-28T07:14:25;45.53;;;16.63;;
48534;SDS011;34323;52.022;5.686;2023-07-28T07:16:50;38.70;;;16.27;;
48534;SDS011;34323;52.022;5.686;2023-07-28T07:19:16;41.35;;;16.70;;
48534;SDS011;34323;52.022;5.686;2023-07-28T07:21:41;37.50;;;17.40;;
48534;SDS011;34323;52.022;5.686;2023-07-28T07:24:09;33.70;;;17.88;;
48534;SDS011;34323;52.022;5.686;2023-07-28T07:26:35;31.10;;;16.48;;
48534;SDS011;34323;52.022;5.686;2023-07-28T07:29:00;42.65;;;16.63;;
48534;SDS011;34323;52.022;5.686;2023-07-28T07:31:26;35.30;;;16.40;;
48534;SDS011;34323;52.022;5.686;2023-07-28T07:33:52;41.03;;;17.27;;
48534;SDS011;34323;52.022;5.686;2023-07-28T07:36:18;40.30;;;17.50;;
48534;SDS011;34323;52.022;5.686;2023-07-28T07:38:44;29.40;;;15.98;;
48534;SDS011;34323;52.022;5.686;2023-07-28T07:41:16;37.35;;;17.48;;
48534;SDS011;34323;52.022;5.686;2023-07-28T07:43:45;42.45;;;16.77;;
48534;SDS011;34323;52.022;5.686;2023-07-28T07:46:11;32.30;;;15.85;;
48534;SDS011;34323;52.022;5.686;2023-07-28T07:48:37;30.38;;;14.77;;
48534;SDS011;34323;52.022;5.686;2023-07-28T07:51:03;33.83;;;16.02;;
48534;SDS011;34323;52.022;5.686;2023-07-28T07:53:28;41.63;;;16.05;;
48534;SDS011;34323;52.022;5.686;2023-07-28T07:55:54;33.30;;;15.32;;
48534;SDS011;34323;52.022;5.686;2023-07-28T07:58:20;28.23;;;14.70;;
48534;SDS011;34323;52.022;5.686;2023-07-28T08:00:45;23.88;;;13.55;;
48534;SDS011;34323;52.022;5.686;2023-07-28T08:03:11;32.25;;;13.02;;
48534;SDS011;34323;52.022;5.686;2023-07-28T08:05:36;29.63;;;14.25;;
48534;SDS011;34323;52.022;5.686;2023-07-28T08:08:02;23.27;;;13.57;;
48534;SDS011;34323;52.022;5.686;2023-07-28T08:10:28;28.15;;;14.63;;
48534;SDS011;34323;52.022;5.686;2023-07-28T08:12:55;25.27;;;13.63;;
48534;SDS011;34323;52.022;5.686;2023-07-28T08:15:20;26.75;;;12.45;;
48534;SDS011;34323;52.022;5.686;2023-07-28T08:17:46;33.42;;;14.45;;
48534;SDS011;34323;52.022;5.686;2023-07-28T08:20:11;27.60;;;14.18;;
48534;SDS011;34323;52.022;5.686;2023-07-28T08:22:37;26.77;;;14.02;;
48534;SDS011;34323;52.022;5.686;2023-07-28T08:25:04;28.70;;;13.88;;
48534;SDS011;34323;52.022;5.686;2023-07-28T08:27:30;24.75;;;12.40;;
48534;SDS011;34323;52.022;5.686;2023-07-28T08:29:55;26.25;;;13.50;;
48534;SDS011;34323;52.022;5.686;2023-07-28T08:32:21;25.70;;;14.73;;
48534;SDS011;34323;52.022;5.686;2023-07-28T08:34:47;24.73;;;13.20;;
48534;SDS011;34323;52.022;5.686;2023-07-28T08:37:13;26.83;;;14.30;;
48534;SDS011;34323;52.022;5.686;2023-07-28T08:39:38;27.88;;;14.43;;
48534;SDS011;34323;52.022;5.686;2023-07-28T08:42:04;34.42;;;13.43;;
48534;SDS011;34323;52.022;5.686;2023-07-28T08:44:30;23.30;;;12.95;;
48534;SDS011;34323;52.022;5.686;2023-07-28T08:46:57;19.88;;;11.27;;
48534;SDS011;34323;52.022;5.686;2023-07-28T08:49:28;29.42;;;13.52;;
48534;SDS011;34323;52.022;5.686;2023-07-28T08:51:59;25.70;;;13.80;;
48534;SDS011;34323;52.022;5.686;2023-07-28T08:54:25;24.48;;;12.15;;
48534;SDS011;34323;52.022;5.686;2023-07-28T08:56:51;22.50;;;12.00;;
48534;SDS011;34323;52.022;5.686;2023-07-28T08:59:24;21.23;;;11.95;;
48534;SDS011;34323;52.022;5.686;2023-07-28T09:01:54;20.95;;;11.13;;
48534;SDS011;34323;52.022;5.686;2023-07-28T09:04:21;22.67;;;12.45;;
48534;SDS011;34323;52.022;5.686;2023-07-28T09:06:48;23.35;;;10.95;;
48534;SDS011;34323;52.022;5.686;2023-07-28T09:09:14;20.45;;;10.82;;
48534;SDS011;34323;52.022;5.686;2023-07-28T09:11:44;27.98;;;12.10;;
48534;SDS011;34323;52.022;5.686;2023-07-28T09:14:11;23.20;;;10.48;;
48534;SDS011;34323;52.022;5.686;2023-07-28T09:16:38;16.25;;;11.00;;
48534;SDS011;34323;52.022;5.686;2023-07-28T09:19:07;18.05;;;10.55;;
48534;SDS011;34323;52.022;5.686;2023-07-28T09:21:33;19.70;;;10.48;;
48534;SDS011;34323;52.022;5.686;2023-07-28T09:24:05;19.45;;;10.23;;
48534;SDS011;34323;52.022;5.686;2023-07-28T09:26:42;16.15;;;9.65;;
48534;SDS011;34323;52.022;5.686;2023-07-28T09:29:13;16.08;;;9.50;;
48534;SDS011;34323;52.022;5.686;2023-07-28T09:31:43;13.15;;;9.93;;
48534;SDS011;34323;52.022;5.686;2023-07-28T09:34:10;17.60;;;9.80;;
48534;SDS011;34323;52.022;5.686;2023-07-28T09:36:37;13.57;;;8.38;;
48534;SDS011;34323;52.022;5.686;2023-07-28T09:39:06;18.58;;;9.10;;
48534;SDS011;34323;52.022;5.686;2023-07-28T09:41:34;15.95;;;8.65;;
48534;SDS011;34323;52.022;5.686;2023-07-28T09:44:02;11.68;;;8.98;;
48534;SDS011;34323;52.022;5.686;2023-07-28T09:46:28;11.80;;;9.25;;
48534;SDS011;34323;52.022;5.686;2023-07-28T09:48:58;15.55;;;8.75;;
48534;SDS011;34323;52.022;5.686;2023-07-28T09:51:27;18.85;;;9.75;;
48534;SDS011;34323;52.022;5.686;2023-07-28T09:53:56;14.50;;;9.75;;
48534;SDS011;34323;52.022;5.686;2023-07-28T09:56:28;14.98;;;9.68;;
48534;SDS011;34323;52.022;5.686;2023-07-28T09:58:54;12.13;;;8.93;;
48534;SDS011;34323;52.022;5.686;2023-07-28T10:01:22;13.02;;;8.65;;
48534;SDS011;34323;52.022;5.686;2023-07-28T10:03:49;14.32;;;7.85;;
48534;SDS011;34323;52.022;5.686;2023-07-28T10:06:15;16.85;;;9.07;;
48534;SDS011;34323;52.022;5.686;2023-07-28T10:08:42;14.23;;;7.72;;
48534;SDS011;34323;52.022;5.686;2023-07-28T10:11:10;13.48;;;7.45;;
48534;SDS011;34323;52.022;5.686;2023-07-28T10:13:40;12.95;;;7.53;;
48534;SDS011;34323;52.022;5.686;2023-07-28T10:16:07;14.13;;;7.28;;
48534;SDS011;34323;52.022;5.686;2023-07-28T10:18:37;11.93;;;6.90;;
48534;SDS011;34323;52.022;5.686;2023-07-28T10:21:09;14.43;;;8.27;;
48534;SDS011;34323;52.022;5.686;2023-07-28T10:23:40;10.70;;;7.20;;
48534;SDS011;34323;52.022;5.686;2023-07-28T10:26:06;11.73;;;7.82;;
48534;SDS011;34323;52.022;5.686;2023-07-28T10:28:36;14.63;;;7.75;;
48534;SDS011;34323;52.022;5.686;2023-07-28T10:31:10;17.67;;;8.55;;
48534;SDS011;34323;52.022;5.686;2023-07-28T10:33:37;11.88;;;6.60;;
48534;SDS011;34323;52.022;5.686;2023-07-28T10:36:14;10.75;;;7.05;;
48534;SDS011;34323;52.022;5.686;2023-07-28T10:39:00;15.48;;;8.07;;
48534;SDS011;34323;52.022;5.686;2023-07-28T10:41:36;12.50;;;7.28;;
48534;SDS011;34323;52.022;5.686;2023-07-28T10:44:02;10.60;;;8.10;;
48534;SDS011;34323;52.022;5.686;2023-07-28T10:46:28;10.88;;;8.27;;
48534;SDS011;34323;52.022;5.686;2023-07-28T10:48:54;10.88;;;8.13;;
48534;SDS011;34323;52.022;5.686;2023-07-28T10:51:24;15.55;;;9.05;;
48534;SDS011;34323;52.022;5.686;2023-07-28T10:53:59;14.57;;;8.98;;
48534;SDS011;34323;52.022;5.686;2023-07-28T10:56:27;11.32;;;8.60;;
48534;SDS011;34323;52.022;5.686;2023-07-28T10:58:56;13.45;;;8.05;;
48534;SDS011;34323;52.022;5.686;2023-07-28T11:01:25;13.98;;;8.13;;
48534;SDS011;34323;52.022;5.686;2023-07-28T11:04:06;10.57;;;7.18;;
48534;SDS011;34323;52.022;5.686;2023-07-28T11:06:35;11.90;;;7.90;;
48534;SDS011;34323;52.022;5.686;2023-07-28T11:09:09;11.48;;;7.97;;
48534;SDS011;34323;52.022;5.686;2023-07-28T11:11:39;12.73;;;8.93;;
48534;SDS011;34323;52.022;5.686;2023-07-28T11:14:06;11.02;;;8.27;;
48534;SDS011;34323;52.022;5.686;2023-07-28T11:16:34;12.98;;;8.85;;
48534;SDS011;34323;52.022;5.686;2023-07-28T11:19:01;14.98;;;8.25;;
48534;SDS011;34323;52.022;5.686;2023-07-28T11:21:27;11.85;;;8.93;;
48534;SDS011;34323;52.022;5.686;2023-07-28T11:23:53;15.63;;;8.88;;
48534;SDS011;34323;52.022;5.686;2023-07-28T11:26:19;17.00;;;9.32;;
48534;SDS011;34323;52.022;5.686;2023-07-28T11:28:47;18.10;;;10.02;;
48534;SDS011;34323;52.022;5.686;2023-07-28T11:31:13;14.95;;;11.38;;
48534;SDS011;34323;52.022;5.686;2023-07-28T11:33:39;15.65;;;10.80;;
48534;SDS011;34323;52.022;5.686;2023-07-28T11:36:05;16.92;;;12.13;;
48534;SDS011;34323;52.022;5.686;2023-07-28T11:38:31;18.15;;;12.07;;
48534;SDS011;34323;52.022;5.686;2023-07-28T11:40:58;18.63;;;12.18;;
48534;SDS011;34323;52.022;5.686;2023-07-28T11:43:25;15.25;;;10.65;;
48534;SDS011;34323;52.022;5.686;2023-07-28T11:45:50;17.08;;;11.32;;
48534;SDS011;34323;52.022;5.686;2023-07-28T11:48:16;17.17;;;12.05;;
48534;SDS011;34323;52.022;5.686;2023-07-28T11:50:42;17.77;;;11.48;;
48534;SDS011;34323;52.022;5.686;2023-07-28T11:53:10;19.75;;;10.75;;
48534;SDS011;34323;52.022;5.686;2023-07-28T11:55:36;18.23;;;10.57;;
48534;SDS011;34323;52.022;5.686;2023-07-28T11:58:03;15.52;;;10.05;;
48534;SDS011;34323;52.022;5.686;2023-07-28T12:00:36;20.60;;;11.93;;
48534;SDS011;34323;52.022;5.686;2023-07-28T12:03:05;20.88;;;12.23;;
48534;SDS011;34323;52.022;5.686;2023-07-28T12:05:34;16.15;;;11.35;;
48534;SDS011;34323;52.022;5.686;2023-07-28T12:08:01;16.83;;;11.43;;
48534;SDS011;34323;52.022;5.686;2023-07-28T12:10:28;15.52;;;11.23;;
48534;SDS011;34323;52.022;5.686;2023-07-28T12:12:54;18.23;;;11.95;;
48534;SDS011;34323;52.022;5.686;2023-07-28T12:18:02;17.17;;;10.60;;
48534;SDS011;34323;52.022;5.686;2023-07-28T12:20:33;17.52;;;10.40;;
48534;SDS011;34323;52.022;5.686;2023-07-28T12:22:59;17.45;;;10.68;;
48534;SDS011;34323;52.022;5.686;2023-07-28T12:25:25;16.13;;;9.88;;
48534;SDS011;34323;52.022;5.686;2023-07-28T12:27:50;16.75;;;9.35;;
48534;SDS011;34323;52.022;5.686;2023-07-28T12:30:17;14.77;;;8.85;;
48534;SDS011;34323;52.022;5.686;2023-07-28T12:32:42;11.60;;;8.23;;
48534;SDS011;34323;52.022;5.686;2023-07-28T12:35:08;15.45;;;8.55;;
48534;SDS011;34323;52.022;5.686;2023-07-28T12:37:33;15.93;;;9.15;;
48534;SDS011;34323;52.022;5.686;2023-07-28T12:39:59;15.38;;;8.82;;
48534;SDS011;34323;52.022;5.686;2023-07-28T12:42:26;16.92;;;8.32;;
48534;SDS011;34323;52.022;5.686;2023-07-28T12:44:51;12.32;;;8.32;;
48534;SDS011;34323;52.022;5.686;2023-07-28T12:47:17;10.40;;;7.93;;
48534;SDS011;34323;52.022;5.686;2023-07-28T12:49:43;13.73;;;8.82;;
48534;SDS011;34323;52.022;5.686;2023-07-28T12:52:08;12.48;;;8.05;;
48534;SDS011;34323;52.022;5.686;2023-07-28T12:54:34;14.13;;;8.50;;
48534;SDS011;34323;52.022;5.686;2023-07-28T12:57:00;16.48;;;8.77;;
48534;SDS011;34323;52.022;5.686;2023-07-28T12:59:26;13.10;;;6.97;;
48534;SDS011;34323;52.022;5.686;2023-07-28T13:01:53;11.57;;;8.02;;
48534;SDS011;34323;52.022;5.686;2023-07-28T13:04:18;11.45;;;7.47;;
48534;SDS011;34323;52.022;5.686;2023-07-28T13:06:44;10.20;;;7.03;;
48534;SDS011;34323;52.022;5.686;2023-07-28T13:09:09;9.80;;;7.13;;
48534;SDS011;34323;52.022;5.686;2023-07-28T13:11:35;12.48;;;7.28;;
48534;SDS011;34323;52.022;5.686;2023-07-28T13:14:01;10.02;;;7.53;;
48534;SDS011;34323;52.022;5.686;2023-07-28T13:16:27;12.02;;;7.63;;
48534;SDS011;34323;52.022;5.686;2023-07-28T13:18:52;10.20;;;6.50;;
48534;SDS011;34323;52.022;5.686;2023-07-28T13:21:18;9.27;;;7.15;;
48534;SDS011;34323;52.022;5.686;2023-07-28T13:23:43;12.35;;;7.22;;
48534;SDS011;34323;52.022;5.686;2023-07-28T13:26:09;9.27;;;5.97;;
48534;SDS011;34323;52.022;5.686;2023-07-28T13:28:35;13.18;;;5.55;;
48534;SDS011;34323;52.022;5.686;2023-07-28T13:31:01;11.48;;;5.55;;
48534;SDS011;34323;52.022;5.686;2023-07-28T13:33:27;11.20;;;6.80;;
48534;SDS011;34323;52.022;5.686;2023-07-28T13:35:53;11.00;;;5.53;;
48534;SDS011;34323;52.022;5.686;2023-07-28T13:38:19;7.32;;;5.30;;
48534;SDS011;34323;52.022;5.686;2023-07-28T13:40:44;5.97;;;5.03;;
48534;SDS011;34323;52.022;5.686;2023-07-28T13:43:10;10.10;;;5.65;;
48534;SDS011;34323;52.022;5.686;2023-07-28T13:45:35;9.75;;;5.40;;
48534;SDS011;34323;52.022;5.686;2023-07-28T13:48:02;8.15;;;5.45;;
48534;SDS011;34323;52.022;5.686;2023-07-28T13:50:27;6.65;;;5.40;;
48534;SDS011;34323;52.022;5.686;2023-07-28T13:52:53;10.00;;;6.43;;
48534;SDS011;34323;52.022;5.686;2023-07-28T13:55:18;8.68;;;6.13;;
48534;SDS011;34323;52.022;5.686;2023-07-28T13:57:44;6.25;;;5.00;;
48534;SDS011;34323;52.022;5.686;2023-07-28T14:00:09;8.00;;;5.55;;
48534;SDS011;34323;52.022;5.686;2023-07-28T14:02:36;7.65;;;5.38;;
48534;SDS011;34323;52.022;5.686;2023-07-28T14:05:02;7.63;;;5.50;;
48534;SDS011;34323;52.022;5.686;2023-07-28T14:07:28;7.60;;;5.82;;
48534;SDS011;34323;52.022;5.686;2023-07-28T14:09:54;9.85;;;6.53;;
48534;SDS011;34323;52.022;5.686;2023-07-28T14:12:19;7.70;;;5.97;;
48534;SDS011;34323;52.022;5.686;2023-07-28T14:14:45;7.78;;;5.80;;
48534;SDS011;34323;52.022;5.686;2023-07-28T14:17:10;8.15;;;6.10;;
48534;SDS011;34323;52.022;5.686;2023-07-28T14:19:37;9.50;;;6.13;;
48534;SDS011;34323;52.022;5.686;2023-07-28T14:22:03;8.05;;;5.40;;
48534;SDS011;34323;52.022;5.686;2023-07-28T14:24:29;14.35;;;6.00;;
48534;SDS011;34323;52.022;5.686;2023-07-28T14:26:55;8.10;;;5.50;;